Time;durP1;ratioP1;P1;durP2;ratioP2;P2;SDS_P1;SDS_P2;PMS_P1;PMS_P2;Temp;Humidity;BMP_temperature;BMP_pressure;BME280_temperature;BME280_humidity;BME280_pressure;Samples;Min_cycle;Max_cycle;Signal;HPM_P1;HPM_P2
2022/04/09 00:02:04;;;;;;;1.55;0.75;;;;;;;18.03;40.75;100199.63;5145253;27;20095;-55
2022/04/09 00:04:30;;;;;;;0.82;0.68;;;;;;;18.03;40.71;100201.47;5145241;27;20106;-55
2022/04/09 00:06:55;;;;;;;0.82;0.70;;;;;;;17.99;40.61;100195.59;5144878;27;20091;-55
2022/04/09 00:09:20;;;;;;;2.65;0.82;;;;;;;17.99;40.71;100196.44;5145310;27;20027;-56
2022/04/09 00:11:46;;;;;;;1.42;0.73;;;;;;;17.98;40.73;100200.16;5144774;27;20027;-54
2022/04/09 00:14:12;;;;;;;1.63;0.85;;;;;;;17.98;40.60;100199.31;5145537;27;20034;-53
2022/04/09 00:16:38;;;;;;;0.90;0.77;;;;;;;17.97;41.07;100208.41;5143743;27;20023;-55
2022/04/09 00:19:04;;;;;;;0.68;0.63;;;;;;;17.97;40.85;100208.41;5144872;27;20096;-55
2022/04/09 00:21:29;;;;;;;0.90;0.68;;;;;;;17.94;40.67;100220.34;5125987;27;20043;-52
2022/04/09 00:23:55;;;;;;;1.30;0.80;;;;;;;17.94;40.54;100219.53;5144601;27;20034;-55
2022/04/09 00:26:20;;;;;;;1.60;0.85;;;;;;;17.94;40.86;100232.97;5143378;27;20040;-56
2022/04/09 00:28:45;;;;;;;1.65;0.90;;;;;;;17.92;40.83;100243.06;5144943;27;20023;-55
2022/04/09 00:31:10;;;;;;;0.95;0.60;;;;;;;17.91;40.62;100238.69;5144949;27;20019;-56
2022/04/09 00:33:36;;;;;;;2.17;1.17;;;;;;;17.89;40.75;100232.69;5144862;27;20027;-55
2022/04/09 00:36:01;;;;;;;1.73;0.80;;;;;;;17.89;40.74;100238.88;5125450;27;20027;-55
2022/04/09 00:38:28;;;;;;;1.40;0.80;;;;;;;17.89;40.62;100244.25;5144703;27;20075;-56
2022/04/09 00:40:54;;;;;;;1.00;0.82;;;;;;;17.88;40.79;100244.44;5125678;27;20118;-53
2022/04/09 00:43:19;;;;;;;1.17;0.75;;;;;;;17.88;40.91;100255.19;5144841;27;20027;-56
2022/04/09 00:45:48;;;;;;;3.03;0.93;;;;;;;17.86;40.79;100250.00;5144454;27;20030;-56
2022/04/09 00:48:13;;;;;;;;;;;;;;;17.83;40.87;100252.19;5143866;27;20202;-55
2022/04/09 00:50:38;;;;;;;1.38;0.80;;;;;;;17.83;40.67;100257.56;5144242;27;19919;-56
2022/04/09 00:53:06;;;;;;;1.10;0.80;;;;;;;17.79;40.83;100254.41;5144498;27;20019;-56
2022/04/09 00:58:16;;;;;;;0.82;0.70;;;;;;;17.80;40.69;100264.16;5129064;27;20030;-55
2022/04/09 01:00:42;;;;;;;0.93;0.70;;;;;;;17.80;40.70;100266.84;5123708;28;20028;-55
2022/04/09 01:03:10;;;;;;;1.40;0.90;;;;;;;17.80;40.61;100276.75;5123835;28;20032;-56
2022/04/09 01:05:35;;;;;;;1.13;0.90;;;;;;;17.79;40.68;100272.38;5123483;28;20438;-56
2022/04/09 01:08:03;;;;;;;0.85;0.80;;;;;;;17.80;40.75;100279.44;5104271;28;20537;-57
2022/04/09 01:10:28;;;;;;;0.80;0.80;;;;;;;17.80;40.66;100288.34;5123903;28;20047;-56
2022/04/09 01:12:54;;;;;;;1.77;0.80;;;;;;;17.80;40.56;100290.19;5123496;28;20020;-56
2022/04/09 01:15:19;;;;;;;1.05;0.80;;;;;;;17.79;40.56;100291.22;5105486;28;20047;-56
2022/04/09 01:17:44;;;;;;;1.30;0.80;;;;;;;17.79;40.80;100301.97;5123806;28;20028;-55
2022/04/09 01:20:26;;;;;;;1.33;0.70;;;;;;;17.78;40.70;100303.81;5141092;28;20035;-56
2022/04/09 01:22:51;;;;;;;1.77;0.98;;;;;;;17.76;40.57;100303.16;5143969;28;20059;-54
2022/04/09 01:25:16;;;;;;;1.98;0.80;;;;;;;17.76;40.42;100303.16;5125493;28;20696;-56
2022/04/09 01:27:41;;;;;;;1.13;0.90;;;;;;;17.73;40.64;100309.69;5144001;28;20046;-54
2022/04/09 01:30:07;;;;;;;0.70;0.70;;;;;;;17.74;40.51;100314.06;5144084;28;20038;-54
2022/04/09 01:32:32;;;;;;;1.30;0.77;;;;;;;17.75;40.45;100320.28;5144357;28;20030;-55
2022/04/09 01:35:01;;;;;;;1.48;1.02;;;;;;;17.74;40.63;100318.63;5125705;28;20082;-54
2022/04/09 01:37:27;;;;;;;1.70;0.90;;;;;;;17.72;40.39;100320.63;5144151;27;20039;-52
2022/04/09 01:39:52;;;;;;;0.95;0.77;;;;;;;17.72;40.68;100323.31;5148044;27;20056;-53
2022/04/09 01:42:20;;;;;;;1.05;0.88;;;;;;;17.71;40.41;100338.63;5147549;27;20027;-54
2022/04/09 01:44:46;;;;;;;1.90;0.80;;;;;;;17.70;41.06;100336.91;5148209;27;20030;-53
2022/04/09 01:47:11;;;;;;;1.15;0.90;;;;;;;17.69;40.45;100348.69;5145362;27;20020;-53
2022/04/09 01:49:36;;;;;;;1.67;1.00;;;;;;;17.69;40.54;100348.69;5147612;27;20069;-52
2022/04/09 01:52:02;;;;;;;1.20;0.80;;;;;;;17.69;40.58;100361.28;5147129;27;20035;-54
2022/04/09 01:54:27;;;;;;;0.85;0.73;;;;;;;17.68;40.42;100359.63;5148209;27;20034;-54
2022/04/09 01:56:52;;;;;;;1.15;0.90;;;;;;;17.66;40.40;100362.47;5147298;27;20038;-55
2022/04/09 01:59:17;;;;;;;1.10;0.95;;;;;;;17.66;40.41;100362.47;5129324;27;20023;-56
2022/04/09 02:01:42;;;;;;;1.35;0.90;;;;;;;17.66;40.53;100365.16;5129370;27;20027;-55
2022/04/09 02:04:08;;;;;;;1.50;1.02;;;;;;;17.65;40.49;100365.34;5147682;27;20046;-54
2022/04/09 02:06:34;;;;;;;1.05;0.73;;;;;;;17.65;40.41;100371.56;5128336;27;20027;-56
2022/04/09 02:09:00;;;;;;;1.55;0.90;;;;;;;17.64;40.52;100372.56;5146962;27;20060;-56
2022/04/09 02:11:25;;;;;;;1.23;0.80;;;;;;;17.63;40.23;100378.97;5128667;27;20109;-55
2022/04/09 02:13:51;;;;;;;1.80;0.90;;;;;;;17.63;40.17;100378.13;5147629;27;20043;-56
2022/04/09 02:16:17;;;;;;;0.80;0.65;;;;;;;17.63;40.36;100383.50;5128907;27;20023;-55
2022/04/09 02:18:43;;;;;;;1.25;0.80;;;;;;;17.62;40.10;100398.78;5147361;27;20027;-55
2022/04/09 02:21:08;;;;;;;1.55;1.38;;;;;;;17.62;40.42;100400.63;5146824;27;20407;-56
2022/04/09 02:23:33;;;;;;;1.40;0.73;;;;;;;17.61;40.34;100397.09;5147424;27;20022;-56
2022/04/09 02:25:58;;;;;;;2.40;0.90;;;;;;;17.61;40.23;100409.72;5146550;27;20031;-56
2022/04/09 02:28:26;;;;;;;0.82;0.80;;;;;;;17.59;40.25;100404.53;5147131;27;20114;-55
2022/04/09 02:30:51;;;;;;;1.35;1.02;;;;;;;17.54;40.35;100404.19;5146557;27;20460;-56
2022/04/09 02:33:16;;;;;;;1.35;0.85;;;;;;;17.57;40.15;100417.28;5146750;27;20050;-55
2022/04/09 02:35:41;;;;;;;1.15;0.80;;;;;;;17.59;40.58;100427.88;5146696;27;20074;-55
2022/04/09 02:38:09;;;;;;;0.95;0.73;;;;;;;17.58;40.13;100434.25;5146254;27;20086;-54
2022/04/09 02:40:35;;;;;;;1.40;0.93;;;;;;;17.57;40.09;100428.03;5146770;27;20027;-55
2022/04/09 02:43:00;;;;;;;1.08;0.73;;;;;;;17.56;40.25;100431.75;5146857;27;20405;-53
2022/04/09 02:45:26;;;;;;;1.23;0.85;;;;;;;17.55;40.34;100440.81;5146630;27;20058;-53
2022/04/09 02:47:51;;;;;;;0.88;0.80;;;;;;;17.55;40.30;100448.03;5138195;27;20031;-55
2022/04/09 02:50:16;;;;;;;1.52;1.00;;;;;;;17.52;40.11;100448.38;5124815;28;20064;-54
2022/04/09 02:52:41;;;;;;;0.80;0.80;;;;;;;17.53;40.37;100450.88;5125866;28;20046;-53
2022/04/09 02:55:08;;;;;;;1.63;1.10;;;;;;;17.53;40.35;100450.88;5126346;28;20076;-53
2022/04/09 02:57:34;;;;;;;0.93;0.73;;;;;;;17.51;40.29;100452.91;5125455;28;20099;-54
2022/04/09 02:59:59;;;;;;;1.98;0.90;;;;;;;17.52;40.21;100459.13;5122600;27;20027;-53
2022/04/09 03:02:25;;;;;;;1.75;0.80;;;;;;;17.50;40.52;100459.31;5128006;27;20037;-53
2022/04/09 03:04:52;;;;;;;2.17;0.90;;;;;;;17.46;40.27;100461.50;5146476;27;20019;-52
2022/04/09 03:07:17;;;;;;;1.85;0.90;;;;;;;17.48;40.45;100469.38;5145817;27;20025;-50
2022/04/09 03:09:42;;;;;;;1.23;0.95;;;;;;;17.47;40.14;100467.72;5146138;27;20110;-54
2022/04/09 03:12:08;;;;;;;1.40;0.80;;;;;;;17.46;40.24;100472.25;5145886;27;20015;-53
2022/04/09 03:14:33;;;;;;;1.35;0.90;;;;;;;17.46;40.47;100476.78;5146496;27;20047;-52
2022/04/09 03:16:58;;;;;;;3.08;1.00;;;;;;;17.45;40.40;100475.91;5145955;27;20038;-53
2022/04/09 03:19:23;;;;;;;1.55;1.17;;;;;;;17.44;40.36;100474.25;5145963;27;20035;-54
2022/04/09 03:21:49;;;;;;;0.82;0.80;;;;;;;17.44;40.34;100476.09;5145662;27;20035;-54
2022/04/09 03:24:14;;;;;;;1.33;0.80;;;;;;;17.43;40.46;100483.31;5146296;27;20023;-55
2022/04/09 03:26:39;;;;;;;1.17;0.77;;;;;;;17.43;40.40;100477.94;5145534;27;20079;-54
2022/04/09 03:29:04;;;;;;;2.10;0.85;;;;;;;17.44;40.10;100484.16;5146093;27;20045;-54
2022/04/09 03:31:30;;;;;;;1.73;0.80;;;;;;;17.43;40.14;100485.19;5146227;27;20018;-51
2022/04/09 03:33:55;;;;;;;1.38;0.95;;;;;;;17.43;40.03;100493.25;5146124;27;20019;-55
2022/04/09 03:36:21;;;;;;;1.52;0.70;;;;;;;17.44;40.22;100493.06;5126473;27;20050;-55
2022/04/09 03:38:46;;;;;;;0.80;0.80;;;;;;;17.44;40.16;100501.13;5145720;27;20023;-52
2022/04/09 03:41:11;;;;;;;1.48;0.80;;;;;;;17.42;40.23;100513.06;5145050;27;20029;-52
2022/04/09 03:43:36;;;;;;;0.77;0.60;;;;;;;17.42;40.36;100518.44;5127196;27;20027;-56
2022/04/09 03:46:03;;;;;;;0.98;0.90;;;;;;;17.42;40.24;100523.81;5145408;27;20450;-55
2022/04/09 03:48:28;;;;;;;1.35;0.88;;;;;;;17.41;40.44;100532.88;5145717;27;20019;-55
2022/04/09 03:50:53;;;;;;;0.70;0.63;;;;;;;17.42;40.41;100545.31;5145467;27;20065;-51
2022/04/09 03:53:21;;;;;;;0.77;0.77;;;;;;;17.41;40.14;100538.25;5145485;27;20031;-56
2022/04/09 03:55:47;;;;;;;0.93;0.70;;;;;;;17.41;40.17;100541.75;5127126;27;20046;-55
2022/04/09 03:58:16;;;;;;;0.77;0.75;;;;;;;17.41;40.20;100533.69;5146011;27;20546;-56
2022/04/09 04:00:42;;;;;;;1.10;0.70;;;;;;;17.40;40.37;100558.91;5145055;27;20038;-55
2022/04/09 04:03:09;;;;;;;0.73;0.73;;;;;;;17.36;40.16;100541.44;5145655;27;20095;-55
2022/04/09 04:05:36;;;;;;;0.70;0.70;;;;;;;17.39;40.26;100559.09;5145116;27;20027;-53
2022/04/09 04:08:02;;;;;;;1.00;0.70;;;;;;;17.39;40.29;100556.41;5144607;27;20050;-55
2022/04/09 04:10:28;;;;;;;1.67;0.98;;;;;;;17.40;40.23;100561.59;5127296;27;20027;-54
2022/04/09 04:12:53;;;;;;;0.70;0.70;;;;;;;17.36;40.12;100548.66;5143260;27;20476;-52
2022/04/09 04:15:18;;;;;;;1.38;0.75;;;;;;;17.37;40.30;100561.91;5124534;27;20039;-55
2022/04/09 04:17:44;;;;;;;0.68;0.68;;;;;;;17.37;40.19;100561.91;5124579;27;20034;-54
2022/04/09 04:20:11;;;;;;;1.23;0.80;;;;;;;17.38;40.21;100569.00;5124202;27;20015;-56
2022/04/09 04:22:36;;;;;;;1.65;0.90;;;;;;;17.38;40.31;100570.84;5140736;27;20016;-53
2022/04/09 04:25:05;;;;;;;0.85;0.70;;;;;;;17.38;40.10;100570.84;5105707;28;20560;-55
2022/04/09 04:27:30;;;;;;;1.63;0.90;;;;;;;17.37;40.16;100571.81;5123908;28;20019;-50
2022/04/09 04:30:00;;;;;;;1.25;0.73;;;;;;;17.37;40.35;100579.88;5123988;28;20141;-51
2022/04/09 04:32:26;;;;;;;0.80;0.80;;;;;;;17.36;40.12;100579.06;5124421;27;20042;-54
2022/04/09 04:34:52;;;;;;;1.08;0.70;;;;;;;17.35;40.17;100580.06;5123897;28;20048;-53
2022/04/09 04:37:17;;;;;;;1.13;0.90;;;;;;;17.34;40.12;100583.78;5134525;27;20035;-49
2022/04/09 04:39:43;;;;;;;0.80;0.77;;;;;;;17.35;40.22;100588.13;5124042;28;20057;-53
2022/04/09 04:42:08;;;;;;;1.00;0.77;;;;;;;17.34;40.41;100586.47;5123576;27;20012;-50
2022/04/09 04:44:33;;;;;;;1.73;1.00;;;;;;;17.32;40.25;100585.75;5124478;27;20012;-51
2022/04/09 04:46:59;;;;;;;0.95;0.75;;;;;;;17.33;40.28;100597.34;5140117;27;20035;-55
2022/04/09 04:49:24;;;;;;;0.95;0.75;;;;;;;17.33;40.18;100598.22;5136925;27;20058;-53
2022/04/09 04:51:49;;;;;;;0.85;0.60;;;;;;;17.33;40.32;100603.59;5143589;27;20079;-50
2022/04/09 04:54:14;;;;;;;0.93;0.70;;;;;;;17.32;40.16;100596.50;5144534;27;20027;-51
2022/04/09 04:56:40;;;;;;;1.05;0.80;;;;;;;17.34;40.31;100601.75;5143851;27;20049;-54
2022/04/09 04:59:07;;;;;;;1.50;0.80;;;;;;;17.32;40.51;100612.63;5137247;27;20080;-54
2022/04/09 05:01:34;;;;;;;1.15;0.98;;;;;;;17.32;40.53;100612.63;5138603;28;20023;-53
2022/04/09 05:03:59;;;;;;;0.82;0.75;;;;;;;17.33;40.41;100614.34;5123667;28;20023;-51
2022/04/09 05:06:25;;;;;;;1.00;0.75;;;;;;;17.29;40.50;100618.38;5125238;27;20023;-55
2022/04/09 05:08:50;;;;;;;0.70;0.70;;;;;;;17.33;40.58;100654.66;5143792;28;20026;-53
2022/04/09 05:11:15;;;;;;;1.48;0.98;;;;;;;17.33;40.34;100651.97;5113572;28;20032;-53
2022/04/09 05:13:40;;;;;;;1.15;0.90;;;;;;;17.33;40.45;100646.59;5146326;27;20025;-52
2022/04/09 05:16:05;;;;;;;1.52;0.70;;;;;;;17.34;40.54;100631.31;5148059;27;20023;-52
2022/04/09 05:18:32;;;;;;;0.88;0.80;;;;;;;17.27;40.63;100614.16;5135079;27;20555;-53
2022/04/09 05:20:58;;;;;;;1.27;0.88;;;;;;;17.36;40.52;100635.50;5137420;27;20031;-52
2022/04/09 05:23:23;;;;;;;1.05;0.80;;;;;;;17.38;40.65;100638.03;5135975;27;20050;-53
2022/04/09 05:25:48;;;;;;;0.93;0.70;;;;;;;17.37;40.49;100642.53;5108631;28;20027;-53
2022/04/09 05:28:13;;;;;;;1.40;0.95;;;;;;;17.41;40.62;100657.31;5127755;28;20055;-55
2022/04/09 05:30:42;;;;;;;1.10;0.88;;;;;;;17.39;40.63;100648.59;5127658;27;20054;-53
2022/04/09 05:33:09;;;;;;;1.10;0.80;;;;;;;17.43;40.56;100662.56;5131966;27;20030;-54
2022/04/09 05:35:34;;;;;;;1.60;0.88;;;;;;;17.42;40.48;100664.41;5146669;27;20027;-54
2022/04/09 05:37:59;;;;;;;1.00;0.90;;;;;;;17.44;40.50;100677.66;5137347;27;20058;-51
2022/04/09 05:40:25;;;;;;;1.20;0.93;;;;;;;17.46;40.73;100673.00;5147382;27;20037;-49
2022/04/09 05:42:50;;;;;;;1.95;1.00;;;;;;;17.46;40.42;100681.88;5134087;27;20051;-51
2022/04/09 05:45:16;;;;;;;1.02;0.80;;;;;;;17.48;40.70;100682.53;5130009;27;20031;-52
2022/04/09 05:47:42;;;;;;;1.13;0.85;;;;;;;17.49;40.58;100686.91;5141271;27;20098;-54
2022/04/09 05:50:09;;;;;;;1.23;0.95;;;;;;;17.50;40.82;100687.78;5146455;27;20023;-54
2022/04/09 05:52:34;;;;;;;1.17;0.80;;;;;;;17.53;40.54;100690.13;5144531;27;20648;-53
2022/04/09 05:55:02;;;;;;;1.15;0.80;;;;;;;17.53;40.54;100697.34;5140947;27;20027;-52
2022/04/09 05:57:27;;;;;;;1.70;0.90;;;;;;;17.54;40.68;100704.41;5137748;27;20023;-51
2022/04/09 05:59:53;;;;;;;1.77;0.90;;;;;;;17.56;40.65;100705.94;5126889;27;20022;-54
2022/04/09 06:02:18;;;;;;;1.73;0.93;;;;;;;17.58;40.82;100711.13;5126981;27;20051;-54
2022/04/09 06:04:43;;;;;;;2.33;0.80;;;;;;;17.58;40.61;100720.03;5143943;27;20097;-53
2022/04/09 06:07:09;;;;;;;1.33;0.95;;;;;;;17.60;40.74;100718.03;5146680;27;20582;-51
2022/04/09 06:09:35;;;;;;;1.27;0.90;;;;;;;17.59;40.50;100718.22;5147508;27;20030;-53
2022/04/09 06:12:01;;;;;;;1.27;0.70;;;;;;;17.62;40.72;100728.63;5111293;27;20015;-54
2022/04/09 06:14:26;;;;;;;0.80;0.80;;;;;;;17.64;40.54;100734.69;5147691;27;20030;-54
2022/04/09 06:16:52;;;;;;;1.30;0.90;;;;;;;17.65;40.69;100734.50;5146954;27;20030;-55
2022/04/09 06:19:18;;;;;;;0.82;0.77;;;;;;;17.64;40.97;100732.81;5110341;27;20023;-58
2022/04/09 06:21:43;;;;;;;1.30;0.80;;;;;;;17.67;40.71;100747.78;5146087;27;20087;-57
2022/04/09 06:24:08;;;;;;;1.13;0.70;;;;;;;17.69;40.55;100749.31;5126901;27;20049;-58
2022/04/09 06:26:33;;;;;;;1.98;0.90;;;;;;;17.67;40.73;100751.31;5146023;27;20030;-58
2022/04/09 06:28:59;;;;;;;1.50;0.82;;;;;;;17.70;40.74;100761.72;5127585;27;20035;-58
2022/04/09 06:31:24;;;;;;;1.45;0.98;;;;;;;17.72;40.47;100758.91;5139280;27;20060;-58
2022/04/09 06:33:49;;;;;;;0.70;0.70;;;;;;;17.72;40.52;100759.75;5147070;27;20019;-57
2022/04/09 06:36:14;;;;;;;1.48;0.82;;;;;;;17.70;40.49;100767.13;5146408;27;20176;-54
2022/04/09 06:38:40;;;;;;;0.80;0.80;;;;;;;17.71;40.66;100768.81;5146587;27;20019;-57
2022/04/09 06:41:05;;;;;;;1.63;0.80;;;;;;;17.74;40.54;100775.72;5127852;27;20019;-57
2022/04/09 06:43:30;;;;;;;1.33;0.90;;;;;;;17.69;40.66;100776.19;5146756;27;20034;-58
2022/04/09 06:45:56;;;;;;;1.10;0.70;;;;;;;17.74;40.41;100779.25;5146552;27;20031;-59
2022/04/09 06:48:22;;;;;;;1.23;0.98;;;;;;;17.75;40.53;100780.09;5146484;27;20027;-58
2022/04/09 06:50:47;;;;;;;2.15;0.88;;;;;;;17.77;40.43;100790.72;5146518;27;20026;-58
2022/04/09 06:53:12;;;;;;;1.02;0.80;;;;;;;17.79;40.29;100783.31;5127978;27;20104;-58
2022/04/09 06:55:38;;;;;;;0.90;0.70;;;;;;;17.80;40.44;100793.91;5146256;27;20039;-57
2022/04/09 06:58:03;;;;;;;0.73;0.63;;;;;;;17.82;40.48;100799.13;5128229;27;20123;-56
2022/04/09 07:00:29;;;;;;;1.40;0.85;;;;;;;17.85;40.31;100805.00;5145870;27;20042;-58
2022/04/09 07:02:54;;;;;;;0.90;0.68;;;;;;;17.86;40.46;100803.16;5146750;27;20076;-59
2022/04/09 07:05:20;;;;;;;0.68;0.68;;;;;;;17.88;40.51;100807.38;5146044;27;20053;-56
2022/04/09 07:07:48;;;;;;;1.48;0.80;;;;;;;17.89;40.22;100809.06;5126618;27;20609;-58
2022/04/09 07:10:15;;;;;;;1.58;0.80;;;;;;;17.85;40.22;100796.94;5145719;27;20019;-57
2022/04/09 07:12:40;;;;;;;2.00;0.70;;;;;;;17.93;40.37;100817.66;5145410;27;20031;-57
2022/04/09 07:15:06;;;;;;;1.23;1.00;;;;;;;17.95;40.19;100815.63;5145649;27;20089;-58
2022/04/09 07:17:31;;;;;;;2.20;0.70;;;;;;;17.97;40.35;100824.38;5146058;27;20027;-58
2022/04/09 07:20:00;;;;;;;2.15;0.88;;;;;;;17.99;40.18;100827.75;5146135;27;20080;-57
2022/04/09 07:22:26;;;;;;;1.00;0.75;;;;;;;17.99;40.07;100825.06;5127170;27;20027;-58
2022/04/09 07:24:52;;;;;;;0.70;0.70;;;;;;;18.02;40.26;100827.41;5146316;27;20387;-58
2022/04/09 07:27:17;;;;;;;1.98;0.93;;;;;;;18.04;40.21;100827.25;5145338;27;20048;-58
2022/04/09 07:29:42;;;;;;;1.27;0.80;;;;;;;18.07;39.96;100832.31;5145841;27;20047;-58
2022/04/09 07:32:08;;;;;;;1.42;0.90;;;;;;;18.10;40.06;100834.66;5145996;27;20045;-58
2022/04/09 07:34:33;;;;;;;1.02;0.80;;;;;;;18.13;40.08;100842.38;5145847;27;20024;-58
2022/04/09 07:36:58;;;;;;;1.30;0.75;;;;;;;18.14;40.00;100842.25;5144567;27;20059;-58
2022/04/09 07:39:23;;;;;;;1.02;0.70;;;;;;;18.15;39.98;100845.78;5145341;27;20022;-58
2022/04/09 07:41:49;;;;;;;1.27;0.75;;;;;;;18.18;39.58;100850.81;5145245;27;20035;-58
2022/04/09 07:44:14;;;;;;;1.23;0.70;;;;;;;18.20;39.83;100857.72;5127305;27;20529;-58
2022/04/09 07:46:39;;;;;;;0.70;0.70;;;;;;;18.22;39.95;100866.47;5145319;27;20054;-57
2022/04/09 07:49:05;;;;;;;1.38;0.80;;;;;;;18.24;39.64;100864.44;5136466;27;20038;-57
2022/04/09 07:51:30;;;;;;;1.85;1.02;;;;;;;18.27;39.84;100870.53;5126484;27;20027;-58
2022/04/09 07:53:55;;;;;;;1.50;0.77;;;;;;;18.29;39.77;100868.50;5145605;27;20112;-59
2022/04/09 07:56:20;;;;;;;1.55;0.70;;;;;;;18.30;39.35;100871.00;5144887;27;20023;-57
2022/04/09 07:58:46;;;;;;;1.25;0.70;;;;;;;18.33;39.72;100873.38;5145232;27;20087;-58
2022/04/09 08:01:11;;;;;;;1.13;0.90;;;;;;;18.35;39.42;100875.91;5109834;27;20023;-58
2022/04/09 08:03:36;;;;;;;1.70;0.70;;;;;;;18.37;39.53;100877.44;5126952;27;20340;-58
2022/04/09 08:06:01;;;;;;;1.73;1.02;;;;;;;18.40;39.55;100893.25;5145207;27;20015;-59
2022/04/09 08:08:27;;;;;;;1.52;1.00;;;;;;;18.41;39.41;100889.56;5144604;27;20049;-58
2022/04/09 08:10:52;;;;;;;1.30;0.80;;;;;;;18.43;39.38;100884.81;5144610;27;20031;-58
2022/04/09 08:13:18;;;;;;;0.85;0.80;;;;;;;18.48;39.10;100884.38;5145196;27;20031;-58
2022/04/09 08:15:44;;;;;;;2.05;0.70;;;;;;;18.49;39.08;100888.72;5144793;27;20079;-58
2022/04/09 08:18:10;;;;;;;1.02;0.70;;;;;;;18.53;38.97;100891.94;5145041;27;20122;-58
2022/04/09 08:20:36;;;;;;;1.27;0.80;;;;;;;18.53;38.98;100884.69;5144838;27;20030;-58
2022/04/09 08:23:01;;;;;;;1.73;0.80;;;;;;;18.52;39.21;100883.03;5144624;27;20041;-58
2022/04/09 08:25:27;;;;;;;1.15;0.70;;;;;;;18.55;39.03;100890.75;5144911;27;20038;-58
2022/04/09 08:27:53;;;;;;;1.10;0.73;;;;;;;18.60;39.08;100895.63;5144383;27;20015;-58
2022/04/09 08:30:19;;;;;;;1.17;0.73;;;;;;;18.59;39.03;100902.03;5144713;27;20048;-58
2022/04/09 08:32:45;;;;;;;0.93;0.60;;;;;;;18.66;38.97;100894.97;5126557;27;20043;-58
2022/04/09 08:35:11;;;;;;;1.67;0.98;;;;;;;18.68;38.72;100899.16;5144552;27;20086;-57
2022/04/09 08:37:36;;;;;;;0.65;0.60;;;;;;;18.71;38.93;100906.13;5144262;27;20047;-59
2022/04/09 08:40:02;;;;;;;1.98;0.88;;;;;;;18.75;38.91;100906.63;5144600;27;20094;-59
2022/04/09 08:42:28;;;;;;;1.15;0.70;;;;;;;18.76;38.77;100911.84;5144426;27;20038;-58
2022/04/09 08:44:53;;;;;;;1.40;0.90;;;;;;;18.78;38.50;100911.69;5125660;27;20027;-59
2022/04/09 08:47:19;;;;;;;1.88;0.80;;;;;;;18.79;38.63;100916.91;5141949;27;20063;-58
2022/04/09 08:49:46;;;;;;;2.35;0.85;;;;;;;18.80;38.46;100923.97;5144097;27;20027;-58
2022/04/09 08:52:12;;;;;;;1.48;0.80;;;;;;;18.81;38.39;100936.41;5143783;27;20023;-58
2022/04/09 08:54:38;;;;;;;1.73;0.80;;;;;;;18.81;38.45;100957.97;5144373;27;20039;-58
2022/04/09 08:57:04;;;;;;;1.73;0.80;;;;;;;18.81;38.42;100963.34;5125131;27;20051;-58
2022/04/09 08:59:29;;;;;;;1.33;0.80;;;;;;;18.83;38.61;100947.88;5144356;27;20023;-56
2022/04/09 09:01:54;;;;;;;1.42;0.75;;;;;;;18.84;38.38;100946.84;5144297;28;20038;-59
2022/04/09 09:04:20;;;;;;;1.02;0.90;;;;;;;18.85;38.59;100943.16;5144313;28;20047;-58
2022/04/09 09:06:45;;;;;;;1.35;0.82;;;;;;;18.86;38.68;100941.28;5143820;28;20031;-58
2022/04/09 09:09:26;;;;;;;2.10;0.90;;;;;;;18.88;38.52;100944.69;5144123;28;20102;-59
2022/04/09 09:11:51;;;;;;;0.70;0.55;;;;;;;18.88;38.42;100950.06;5144090;28;20030;-59
2022/04/09 09:14:33;;;;;;;1.65;0.70;;;;;;;18.90;38.38;100961.50;5144250;28;20027;-59
2022/04/09 09:17:01;;;;;;;1.63;0.70;;;;;;;18.90;38.38;100967.75;5142281;28;20019;-59
2022/04/09 09:19:45;;;;;;;1.20;0.73;;;;;;;18.96;38.37;100977.00;5144298;28;20096;-59
2022/04/09 09:22:10;;;;;;;0.88;0.70;;;;;;;18.97;38.19;100976.84;5143688;28;20482;-60
2022/04/09 09:24:35;;;;;;;0.70;0.65;;;;;;;18.98;38.15;100978.50;5144337;28;20550;-59
2022/04/09 09:27:02;;;;;;;1.25;0.70;;;;;;;19.01;38.51;100982.75;5143269;28;20041;-59
2022/04/09 09:29:29;;;;;;;1.30;0.73;;;;;;;19.02;38.13;100981.72;5144106;28;20488;-59
2022/04/09 09:31:58;;;;;;;1.30;0.70;;;;;;;19.05;38.24;100988.63;5143890;28;20019;-59
2022/04/09 09:34:24;;;;;;;1.65;0.80;;;;;;;19.04;37.95;100986.97;5143903;28;20099;-59
2022/04/09 09:36:49;;;;;;;1.58;0.90;;;;;;;19.05;37.90;100980.56;5143290;28;20104;-59
2022/04/09 09:39:22;;;;;;;0.70;0.70;;;;;;;19.07;37.89;100981.22;5143814;28;20027;-59
2022/04/09 09:41:59;;;;;;;2.05;0.95;;;;;;;19.08;38.14;100972.16;5143591;28;20024;-60
2022/04/09 09:44:25;;;;;;;2.50;1.13;;;;;;;19.09;38.29;100973.81;5144085;28;20019;-58
2022/04/09 09:46:53;;;;;;;1.70;0.88;;;;;;;19.10;38.28;100975.50;5136934;28;20019;-58
2022/04/09 09:49:20;;;;;;;1.55;0.70;;;;;;;19.13;37.98;100975.16;5119233;28;20031;-59
2022/04/09 09:52:09;;;;;;;1.20;0.70;;;;;;;19.18;38.21;100972.81;5120207;28;20023;-56
2022/04/09 09:54:54;;;;;;;1.17;0.52;;;;;;;19.21;38.23;100973.31;5127207;28;20040;-57
2022/04/09 09:57:20;;;;;;;1.35;0.80;;;;;;;19.26;38.28;100980.06;5139391;28;20160;-59
2022/04/09 09:59:45;;;;;;;1.17;0.70;;;;;;;19.28;38.08;100975.31;5138487;27;20023;-60
2022/04/09 10:02:17;;;;;;;1.75;0.73;;;;;;;19.31;38.10;100986.63;5126328;27;20026;-60
2022/04/09 10:04:43;;;;;;;1.75;0.93;;;;;;;19.34;38.05;100996.22;5140564;27;20079;-60
2022/04/09 10:07:09;;;;;;;0.88;0.60;;;;;;;19.37;38.01;101001.25;5146568;27;20485;-60
2022/04/09 10:09:34;;;;;;;1.95;0.80;;;;;;;19.39;38.00;101001.94;5128703;27;20037;-60
2022/04/09 10:12:00;;;;;;;1.25;1.05;;;;;;;19.41;38.04;101006.19;5146775;27;20083;-60
2022/04/09 10:14:26;;;;;;;1.95;1.00;;;;;;;19.45;38.06;100999.44;5147417;27;20053;-60
2022/04/09 10:16:52;;;;;;;1.75;0.90;;;;;;;19.49;37.85;101019.63;5128495;27;20064;-60
2022/04/09 10:19:18;;;;;;;2.08;1.00;;;;;;;19.52;38.12;101034.63;5147344;27;20023;-60
2022/04/09 10:21:46;;;;;;;2.90;1.40;;;;;;;19.53;38.10;101043.56;5146786;27;20026;-59
2022/04/09 10:24:18;;;;;;;2.88;1.30;;;;;;;19.54;37.99;101058.72;5129363;27;20019;-60
2022/04/09 10:26:44;;;;;;;2.97;1.38;;;;;;;19.56;38.00;101048.63;5133907;27;20031;-59
2022/04/09 10:29:10;;;;;;;3.53;1.50;;;;;;;19.57;37.81;101053.84;5108344;28;20068;-59
2022/04/09 10:31:39;;;;;;;2.35;1.20;;;;;;;19.59;38.05;101049.13;5126460;28;20034;-59
2022/04/09 10:34:12;;;;;;;2.83;1.40;;;;;;;19.61;38.05;101044.44;5126568;27;20020;-59
2022/04/09 10:36:40;;;;;;;2.67;1.45;;;;;;;19.63;38.25;101044.28;5125596;27;20047;-60
2022/04/09 10:39:39;;;;;;;2.97;1.77;;;;;;;19.67;38.18;101037.53;5144079;27;20036;-59
2022/04/09 10:42:08;;;;;;;1.50;1.13;;;;;;;19.68;38.25;101033.81;5146097;27;20068;-59
2022/04/09 10:44:37;;;;;;;3.28;1.63;;;;;;;19.72;38.01;101041.41;5146560;27;20031;-59
2022/04/09 10:47:03;;;;;;;3.60;1.65;;;;;;;19.74;38.15;101033.13;5125016;27;20056;-59
2022/04/09 10:49:30;;;;;;;4.57;1.23;;;;;;;19.74;37.87;101035.81;5146253;27;20058;-59
2022/04/09 10:52:19;;;;;;;3.65;1.63;;;;;;;19.81;37.71;101038.69;5145744;27;20038;-59
2022/04/09 10:55:05;;;;;;;3.30;1.40;;;;;;;19.82;37.85;101046.59;5123180;27;20019;-59
2022/04/09 10:57:44;;;;;;;2.20;1.33;;;;;;;19.85;37.92;101067.84;5122815;28;20023;-59
2022/04/09 11:00:22;;;;;;;3.35;1.50;;;;;;;19.87;38.13;101075.75;5125841;27;20039;-59
2022/04/09 11:03:03;;;;;;;2.33;1.03;;;;;;;19.89;38.00;101089.94;5126190;27;20020;-59
2022/04/09 11:05:28;;;;;;;2.10;1.27;;;;;;;19.88;38.33;101070.22;5125638;27;20058;-59
2022/04/09 11:08:07;;;;;;;2.65;1.00;;;;;;;19.92;38.22;101063.47;5120082;27;20483;-59
2022/04/09 11:10:33;;;;;;;2.10;1.17;;;;;;;19.92;37.86;101059.91;5144881;27;20102;-58
2022/04/09 11:12:58;;;;;;;4.13;1.40;;;;;;;19.92;38.06;101060.75;5134724;27;20050;-59
2022/04/09 11:15:24;;;;;;;3.47;1.48;;;;;;;19.96;37.88;101063.94;5132836;27;20030;-58
2022/04/09 11:17:50;;;;;;;2.45;1.23;;;;;;;19.96;37.91;101056.72;5127768;27;20579;-58
2022/04/09 11:20:23;;;;;;;2.97;1.00;;;;;;;20.01;38.04;101060.72;5127459;27;20045;-58
2022/04/09 11:22:51;;;;;;;1.55;1.10;;;;;;;20.02;38.11;101063.25;5145790;27;20050;-59
2022/04/09 11:25:28;;;;;;;2.00;1.20;;;;;;;20.06;37.81;101066.47;5146410;27;20037;-59